Terminal Aerodrome Forecast
Issued by NWS

Home | Current Version | Previous Version | Text Only | Print | Product List | Glossary On
Versions: 1 2 3 4 5 6 7 8 9 10 11 12 13 14
000
FTUS41 KLWX 242322
TAFMTN
TAF
KMTN 242322Z 2500/2524 00000KT P6SM SKC
     FM252000 22005KT P6SM OVC080
      AMD NOT SKED 2502/2512=

USA.gov is the U.S. government's official web portal to all federal, state and local government web resources and services.